Time;durP1;ratioP1;P1;durP2;ratioP2;P2;SDS_P1;SDS_P2;PMS_P1;PMS_P2;Temp;Humidity;BMP_temperature;BMP_pressure;BME280_temperature;BME280_humidity;BME280_pressure;Samples;Min_cycle;Max_cycle;Signal;HPM_P1;HPM_P2
2021/11/13 00:00:42;;;;;;;14.10;10.00;;;;;;;-140.79;100.00;63287.88;5045948;28;20459;-70
2021/11/13 00:03:08;;;;;;;15.65;10.50;;;;;;;-140.79;100.00;63287.88;5048350;28;20040;-70
2021/11/13 00:05:33;;;;;;;14.27;10.32;;;;;;;-140.79;100.00;63287.88;5065501;28;20059;-70
2021/11/13 00:07:58;;;;;;;14.45;10.13;;;;;;;-140.79;100.00;63287.88;5065495;28;20012;-71
2021/11/13 00:10:27;;;;;;;14.88;10.13;;;;;;;-140.79;100.00;63287.88;5064245;28;20028;-72
2021/11/13 00:12:56;;;;;;;16.17;10.70;;;;;;;-140.79;100.00;63287.88;5064030;28;20120;-70
2021/11/13 00:15:22;;;;;;;14.02;9.98;;;;;;;-140.79;100.00;63287.88;5065622;28;20060;-72
2021/11/13 00:17:49;;;;;;;14.70;10.30;;;;;;;-140.79;100.00;63287.88;5064148;28;20051;-70
2021/11/13 00:20:14;;;;;;;15.02;10.60;;;;;;;-140.79;100.00;63287.88;5065191;28;20050;-71
2021/11/13 00:22:40;;;;;;;15.02;10.63;;;;;;;-140.79;100.00;63287.88;5045140;28;20490;-69
2021/11/13 00:25:06;;;;;;;15.25;10.27;;;;;;;-140.79;100.00;63287.88;5065115;28;20059;-70
2021/11/13 00:27:31;;;;;;;13.75;10.18;;;;;;;-140.79;100.00;63287.88;5065665;28;20716;-71
2021/11/13 00:29:57;;;;;;;15.82;10.70;;;;;;;-140.79;100.00;63287.88;5065442;28;20039;-70
2021/11/13 00:32:22;;;;;;;14.95;10.68;;;;;;;-140.79;100.00;63287.88;5066201;28;20086;-71
2021/11/13 00:34:48;;;;;;;16.40;10.88;;;;;;;-140.79;100.00;63287.88;5047619;28;20581;-70
2021/11/13 00:37:13;;;;;;;15.32;10.88;;;;;;;-140.79;100.00;63287.88;5064973;28;20593;-69
2021/11/13 00:39:39;;;;;;;16.25;11.20;;;;;;;-140.79;100.00;63287.88;5047324;28;20025;-69
2021/11/13 00:42:05;;;;;;;13.90;10.00;;;;;;;-140.79;100.00;63287.88;5064737;28;20078;-70
2021/11/13 00:44:30;;;;;;;14.43;10.25;;;;;;;-140.79;100.00;63287.88;5065185;28;20063;-70
2021/11/13 00:46:56;;;;;;;14.05;9.88;;;;;;;-140.79;100.00;63287.88;5065203;28;20126;-71
2021/11/13 00:49:21;;;;;;;15.30;10.60;;;;;;;-140.79;100.00;63287.88;5063976;28;20025;-70
2021/11/13 00:51:47;;;;;;;13.95;10.00;;;;;;;-140.79;100.00;63287.88;5064735;28;20691;-70
2021/11/13 00:54:12;;;;;;;14.32;9.73;;;;;;;-140.79;100.00;63287.88;5064968;28;20040;-70
2021/11/13 00:56:37;;;;;;;14.55;10.48;;;;;;;-140.79;100.00;63287.88;5065038;28;20040;-70
2021/11/13 00:59:03;;;;;;;13.50;9.98;;;;;;;-140.79;100.00;63287.88;5065061;28;20020;-70
2021/11/13 01:04:00;;;;;;;15.68;10.65;;;;;;;-140.79;100.00;63287.88;4908798;28;20408;-61
2021/11/13 01:06:26;;;;;;;14.30;10.77;;;;;;;-140.79;100.00;63287.88;4987545;28;20038;-61
2021/11/13 01:08:51;;;;;;;15.48;11.00;;;;;;;-140.79;100.00;63287.88;5005458;28;20045;-60
2021/11/13 01:11:17;;;;;;;13.43;9.88;;;;;;;-140.79;100.00;63287.88;5005313;28;20033;-61
2021/11/13 01:13:43;;;;;;;13.68;10.68;;;;;;;-140.79;100.00;63287.88;5005181;28;20032;-61
2021/11/13 01:16:08;;;;;;;14.52;10.52;;;;;;;-140.79;100.00;63287.88;5005262;28;20045;-61
2021/11/13 01:18:45;;;;;;;14.45;10.10;;;;;;;-140.79;100.00;63287.88;5005080;28;20048;-62
2021/11/13 01:21:11;;;;;;;14.35;10.40;;;;;;;-140.79;100.00;63287.88;4973928;28;20029;-60
2021/11/13 01:23:36;;;;;;;13.65;9.43;;;;;;;-140.79;100.00;63287.88;5004024;28;20109;-61
2021/11/13 01:26:02;;;;;;;14.25;10.15;;;;;;;-140.79;100.00;63287.88;5004875;28;20042;-61
2021/11/13 01:28:28;;;;;;;13.30;9.90;;;;;;;-140.79;100.00;63287.88;5004898;28;20037;-61
2021/11/13 01:30:53;;;;;;;14.85;10.10;;;;;;;-140.79;100.00;63287.88;4987254;28;20041;-61
2021/11/13 01:33:19;;;;;;;15.23;10.45;;;;;;;-140.79;100.00;63287.88;5004722;28;20034;-61
2021/11/13 01:35:44;;;;;;;14.57;9.88;;;;;;;-140.79;100.00;63287.88;4971049;28;20037;-60
2021/11/13 01:38:09;;;;;;;13.20;9.43;;;;;;;-140.79;100.00;63287.88;4987280;28;20018;-61
2021/11/13 01:40:35;;;;;;;14.05;9.85;;;;;;;-140.79;100.00;63287.88;5003330;28;20029;-60
2021/11/13 01:43:00;;;;;;;14.77;10.25;;;;;;;-140.79;100.00;63287.88;5003282;28;20092;-61
2021/11/13 01:45:26;;;;;;;14.27;9.65;;;;;;;-140.79;100.00;63287.88;5005348;28;20423;-61
2021/11/13 01:47:51;;;;;;;13.63;9.50;;;;;;;-140.79;100.00;63287.88;5005106;28;20600;-60
2021/11/13 01:50:20;;;;;;;14.90;10.35;;;;;;;-140.79;100.00;63287.88;5005021;28;20018;-60
2021/11/13 01:52:45;;;;;;;15.43;9.98;;;;;;;-140.79;100.00;63287.88;5004928;28;20483;-60
2021/11/13 01:55:11;;;;;;;13.77;9.82;;;;;;;-140.79;100.00;63287.88;5007872;28;20109;-60
2021/11/13 01:57:47;;;;;;;13.82;9.73;;;;;;;-140.79;100.00;63287.88;5008450;28;20510;-61
2021/11/13 02:00:23;;;;;;;12.93;9.40;;;;;;;-140.79;100.00;63287.88;5006815;28;20049;-61
2021/11/13 02:02:48;;;;;;;14.90;10.50;;;;;;;-140.79;100.00;63287.88;4990637;28;20054;-61
2021/11/13 02:05:14;;;;;;;13.13;9.82;;;;;;;-140.79;100.00;63287.88;5008029;28;20026;-61
2021/11/13 02:07:39;;;;;;;13.35;9.75;;;;;;;-140.79;100.00;63287.88;5008446;28;20030;-61
2021/11/13 02:10:05;;;;;;;13.68;9.85;;;;;;;-140.79;100.00;63287.88;5008024;28;20824;-62
2021/11/13 02:12:31;;;;;;;13.13;10.20;;;;;;;-140.79;100.00;63287.88;5008173;28;20803;-61
2021/11/13 02:14:56;;;;;;;13.82;10.05;;;;;;;-140.79;100.00;63287.88;5006593;28;20030;-62
2021/11/13 02:17:22;;;;;;;14.18;9.43;;;;;;;-140.79;100.00;63287.88;5007967;28;20030;-61
2021/11/13 02:19:49;;;;;;;14.60;9.73;;;;;;;-140.79;100.00;63287.88;5008082;28;20025;-61
2021/11/13 02:22:14;;;;;;;12.63;9.63;;;;;;;-140.79;100.00;63287.88;4990005;28;20025;-62
2021/11/13 02:24:44;;;;;;;14.60;9.90;;;;;;;-140.79;100.00;63287.88;5007619;28;20161;-61
2021/11/13 02:27:09;;;;;;;12.93;9.50;;;;;;;-140.79;100.00;63287.88;5007804;28;20774;-61
2021/11/13 02:29:35;;;;;;;13.48;9.18;;;;;;;-140.79;100.00;63287.88;5007588;28;20285;-61
2021/11/13 02:32:00;;;;;;;14.30;10.07;;;;;;;-140.79;100.00;63287.88;4990027;28;20022;-61
2021/11/13 02:34:27;;;;;;;13.55;9.57;;;;;;;-140.79;100.00;63287.88;5007631;28;20033;-61
2021/11/13 02:36:52;;;;;;;14.38;9.85;;;;;;;-140.79;100.00;63287.88;4990725;28;20014;-61
2021/11/13 02:39:18;;;;;;;13.27;10.07;;;;;;;-140.79;100.00;63287.88;4990532;28;20021;-61
2021/11/13 02:41:44;;;;;;;13.90;10.60;;;;;;;-140.79;100.00;63287.88;5007564;28;20722;-61
2021/11/13 02:44:11;;;;;;;13.52;9.88;;;;;;;-140.79;100.00;63287.88;4989957;28;20032;-61
2021/11/13 02:46:37;;;;;;;12.52;8.82;;;;;;;-140.79;100.00;63287.88;5007487;28;20036;-61
2021/11/13 02:49:03;;;;;;;12.52;9.23;;;;;;;-140.79;100.00;63287.88;5007285;28;20025;-61
2021/11/13 02:51:28;;;;;;;12.90;9.65;;;;;;;-140.79;100.00;63287.88;4989889;28;20530;-61
2021/11/13 02:53:54;;;;;;;14.05;9.73;;;;;;;-140.79;100.00;63287.88;5006829;28;20037;-61
2021/11/13 02:56:19;;;;;;;13.25;9.20;;;;;;;-140.79;100.00;63287.88;5007444;28;20068;-61
2021/11/13 02:58:45;;;;;;;11.93;9.32;;;;;;;-140.79;100.00;63287.88;5007086;28;20037;-61
2021/11/13 03:01:16;;;;;;;12.38;8.90;;;;;;;-140.79;100.00;63287.88;5007250;28;20037;-61
2021/11/13 03:03:41;;;;;;;12.15;9.50;;;;;;;-140.79;100.00;63287.88;4989676;28;20723;-61
2021/11/13 03:06:09;;;;;;;12.75;9.40;;;;;;;-140.79;100.00;63287.88;5006802;28;20034;-61
2021/11/13 03:08:34;;;;;;;12.68;9.93;;;;;;;-140.79;100.00;63287.88;5007013;28;20026;-61
2021/11/13 03:11:02;;;;;;;12.18;9.00;;;;;;;-140.79;100.00;63287.88;5005340;28;20030;-61
2021/11/13 03:13:29;;;;;;;12.80;8.70;;;;;;;-140.79;100.00;63287.88;4989628;28;20037;-61
2021/11/13 03:15:54;;;;;;;13.10;9.55;;;;;;;-140.79;100.00;63287.88;5006851;28;20026;-61
2021/11/13 03:18:20;;;;;;;12.90;9.38;;;;;;;-140.79;100.00;63287.88;5007079;28;20026;-61
2021/11/13 03:20:45;;;;;;;13.13;9.23;;;;;;;-140.79;100.00;63287.88;5006752;28;20132;-61
2021/11/13 03:23:11;;;;;;;13.00;8.77;;;;;;;-140.79;100.00;63287.88;5006574;28;20655;-62
2021/11/13 03:26:02;;;;;;;14.18;8.98;;;;;;;-140.79;100.00;63287.88;5006757;28;20155;-61
2021/11/13 03:28:28;;;;;;;14.30;9.25;;;;;;;-140.79;100.00;63287.88;4991409;28;20042;-61
2021/11/13 03:30:54;;;;;;;13.93;9.40;;;;;;;-140.79;100.00;63287.88;4988805;28;20518;-61
2021/11/13 03:33:20;;;;;;;13.95;9.00;;;;;;;-140.79;100.00;63287.88;5006706;28;20033;-61
2021/11/13 03:35:45;;;;;;;13.30;9.75;;;;;;;-140.79;100.00;63287.88;5006602;28;20029;-61
2021/11/13 03:38:12;;;;;;;10.63;8.98;;;;;;;-140.79;100.00;63287.88;5006537;28;20462;-61
2021/11/13 03:40:39;;;;;;;12.60;8.63;;;;;;;-140.79;100.00;63287.88;5006494;28;20033;-62
2021/11/13 03:43:05;;;;;;;13.20;9.10;;;;;;;-140.79;100.00;63287.88;4989048;28;20026;-61
2021/11/13 03:45:30;;;;;;;13.07;8.05;;;;;;;-140.79;100.00;63287.88;5006159;28;20107;-62
2021/11/13 03:47:56;;;;;;;12.32;8.57;;;;;;;-140.79;100.00;63287.88;5006149;28;20022;-61
2021/11/13 03:50:22;;;;;;;12.38;8.95;;;;;;;-140.79;100.00;63287.88;5006492;28;20061;-61
2021/11/13 03:52:47;;;;;;;11.93;8.50;;;;;;;-140.79;100.00;63287.88;5006132;28;20117;-61
2021/11/13 03:55:13;;;;;;;12.02;9.00;;;;;;;-140.79;100.00;63287.88;4988417;28;20091;-61
2021/11/13 03:57:38;;;;;;;11.57;8.48;;;;;;;-140.79;100.00;63287.88;5006058;28;20026;-62
2021/11/13 04:00:05;;;;;;;12.55;8.88;;;;;;;-140.79;100.00;63287.88;5006039;28;20030;-61
2021/11/13 04:02:31;;;;;;;12.32;9.00;;;;;;;-140.79;100.00;63287.88;5006049;28;20062;-61
2021/11/13 04:04:56;;;;;;;11.38;8.50;;;;;;;-140.79;100.00;63287.88;5006070;28;20108;-61
2021/11/13 04:07:22;;;;;;;11.75;8.57;;;;;;;-140.79;100.00;63287.88;5006101;28;20488;-62
2021/11/13 04:09:47;;;;;;;11.23;8.02;;;;;;;-140.79;100.00;63287.88;5005691;28;20026;-61
2021/11/13 04:12:14;;;;;;;12.05;8.20;;;;;;;-140.79;100.00;63287.88;5005485;28;20030;-61
2021/11/13 04:14:41;;;;;;;11.57;8.40;;;;;;;-140.79;100.00;63287.88;5005792;28;20037;-61
2021/11/13 04:17:07;;;;;;;10.90;7.95;;;;;;;-140.79;100.00;63287.88;5005306;28;20045;-61
2021/11/13 04:19:32;;;;;;;10.13;7.82;;;;;;;-140.79;100.00;63287.88;5005793;28;20032;-61
2021/11/13 04:21:57;;;;;;;12.57;8.15;;;;;;;-140.79;100.00;63287.88;5004296;28;20590;-61
2021/11/13 04:24:23;;;;;;;10.43;7.72;;;;;;;-140.79;100.00;63287.88;5005692;28;20029;-62
2021/11/13 04:26:48;;;;;;;10.63;7.93;;;;;;;-140.79;100.00;63287.88;4971804;28;20042;-61
2021/11/13 04:29:14;;;;;;;11.10;8.70;;;;;;;-140.79;100.00;63287.88;5005378;28;20034;-61
2021/11/13 04:31:40;;;;;;;11.48;8.05;;;;;;;-140.79;100.00;63287.88;5005617;28;20037;-60
2021/11/13 04:34:13;;;;;;;10.63;8.10;;;;;;;-140.79;100.00;63287.88;5005418;28;20032;-61
2021/11/13 04:36:39;;;;;;;12.25;8.15;;;;;;;-140.79;100.00;63287.88;5005291;28;20055;-61
2021/11/13 04:39:06;;;;;;;12.50;8.15;;;;;;;-140.79;100.00;63287.88;5005464;28;20030;-61
2021/11/13 04:41:32;;;;;;;11.65;8.32;;;;;;;-140.79;100.00;63287.88;5005746;28;20046;-62
2021/11/13 04:43:58;;;;;;;12.52;8.38;;;;;;;-140.79;100.00;63287.88;5005607;28;20021;-61
2021/11/13 04:46:23;;;;;;;12.40;8.25;;;;;;;-140.79;100.00;63287.88;5005168;28;20519;-61
2021/11/13 04:48:49;;;;;;;11.95;8.05;;;;;;;-140.79;100.00;63287.88;5005125;28;20034;-61
2021/11/13 04:51:14;;;;;;;11.32;7.40;;;;;;;-140.79;100.00;63287.88;5005102;28;20045;-61
2021/11/13 04:53:40;;;;;;;11.82;8.43;;;;;;;-140.79;100.00;63287.88;5004967;28;20562;-61
2021/11/13 04:56:05;;;;;;;10.43;7.65;;;;;;;-140.79;100.00;63287.88;5004970;28;20466;-61
2021/11/13 04:58:31;;;;;;;10.65;8.00;;;;;;;-140.79;100.00;63287.88;5004719;28;20113;-61
2021/11/13 05:00:56;;;;;;;11.80;8.00;;;;;;;-140.79;100.00;63287.88;5005010;28;20727;-61
2021/11/13 05:03:22;;;;;;;10.60;7.70;;;;;;;-140.79;100.00;63287.88;5005001;28;20053;-61
2021/11/13 05:05:47;;;;;;;10.68;7.88;;;;;;;-140.79;100.00;63287.88;4970165;28;20037;-61
2021/11/13 05:08:13;;;;;;;11.23;7.57;;;;;;;-140.79;100.00;63287.88;5003668;28;20029;-61
2021/11/13 05:10:38;;;;;;;11.35;7.82;;;;;;;-140.79;100.00;63287.88;5003943;28;20477;-61
2021/11/13 05:13:04;;;;;;;11.95;8.27;;;;;;;-140.79;100.00;63287.88;5004069;28;20113;-61
2021/11/13 05:15:29;;;;;;;11.38;7.88;;;;;;;-140.79;100.00;63287.88;5004180;28;20030;-61
2021/11/13 05:17:54;;;;;;;10.18;7.70;;;;;;;-140.79;100.00;63287.88;5003499;28;20018;-61
2021/11/13 05:20:20;;;;;;;11.10;7.93;;;;;;;-140.79;100.00;63287.88;5003916;28;20018;-61
2021/11/13 05:22:46;;;;;;;10.25;7.68;;;;;;;-140.79;100.00;63287.88;5003696;28;20408;-61
2021/11/13 05:25:14;;;;;;;10.20;7.70;;;;;;;-140.79;100.00;63287.88;4986406;28;20105;-61
2021/11/13 05:27:39;;;;;;;10.45;7.70;;;;;;;-140.79;100.00;63287.88;5003912;28;20080;-62
2021/11/13 05:30:06;;;;;;;11.18;7.78;;;;;;;-140.79;100.00;63287.88;4990750;28;20030;-61
2021/11/13 05:32:31;;;;;;;10.50;7.68;;;;;;;-140.79;100.00;63287.88;5008379;28;20563;-62
2021/11/13 05:34:57;;;;;;;12.45;8.35;;;;;;;-140.79;100.00;63287.88;5008830;28;20022;-62
2021/11/13 05:37:22;;;;;;;11.13;7.88;;;;;;;-140.79;100.00;63287.88;5008678;28;20050;-62
2021/11/13 05:39:48;;;;;;;11.35;8.63;;;;;;;-140.79;100.00;63287.88;5008797;28;20034;-62
2021/11/13 05:42:15;;;;;;;10.80;8.00;;;;;;;-140.79;100.00;63287.88;4990904;28;20064;-62
2021/11/13 05:44:41;;;;;;;10.77;7.78;;;;;;;-140.79;100.00;63287.88;4991527;28;20772;-62
2021/11/13 05:47:06;;;;;;;11.43;7.80;;;;;;;-140.79;100.00;63287.88;5008923;28;20584;-62
2021/11/13 05:49:32;;;;;;;10.57;7.60;;;;;;;-140.79;100.00;63287.88;5008381;28;20531;-61
2021/11/13 05:51:57;;;;;;;11.43;8.13;;;;;;;-140.79;100.00;63287.88;5008674;28;20053;-61
2021/11/13 05:54:23;;;;;;;10.70;8.10;;;;;;;-140.79;100.00;63287.88;5006219;28;20029;-61
2021/11/13 05:56:48;;;;;;;11.93;8.05;;;;;;;-140.79;100.00;63287.88;5008338;28;20116;-61
2021/11/13 05:59:14;;;;;;;11.57;8.15;;;;;;;-140.79;100.00;63287.88;5008267;28;20032;-62
2021/11/13 06:01:39;;;;;;;12.07;8.43;;;;;;;-140.79;100.00;63287.88;4988627;28;20087;-61
2021/11/13 06:04:05;;;;;;;10.95;8.20;;;;;;;-140.79;100.00;63287.88;4989245;28;20057;-61
2021/11/13 06:06:30;;;;;;;10.05;7.80;;;;;;;-140.79;100.00;63287.88;5002440;28;20022;-62
2021/11/13 06:08:56;;;;;;;10.60;8.05;;;;;;;-140.79;100.00;63287.88;5002174;28;20577;-62
2021/11/13 06:11:21;;;;;;;9.82;8.02;;;;;;;-140.79;100.00;63287.88;5022537;28;20037;-61
2021/11/13 06:13:47;;;;;;;11.77;7.93;;;;;;;-140.79;100.00;63287.88;5007156;28;20041;-62
2021/11/13 06:16:12;;;;;;;11.23;7.85;;;;;;;-140.79;100.00;63287.88;5019345;28;20410;-62
2021/11/13 06:18:38;;;;;;;10.88;8.35;;;;;;;-140.79;100.00;63287.88;5006841;28;20017;-61
2021/11/13 06:21:05;;;;;;;11.07;7.72;;;;;;;-140.79;100.00;63287.88;5004011;28;20022;-61
2021/11/13 06:23:32;;;;;;;11.13;7.78;;;;;;;-140.79;100.00;63287.88;5021631;28;20034;-62
2021/11/13 06:25:57;;;;;;;10.90;8.32;;;;;;;-140.79;100.00;63287.88;5007328;28;20037;-62
2021/11/13 06:28:22;;;;;;;13.27;7.70;;;;;;;-140.79;100.00;63287.88;5007484;28;20030;-63
2021/11/13 06:30:48;;;;;;;11.50;7.82;;;;;;;-140.79;100.00;63287.88;5008009;28;20033;-64
2021/11/13 06:33:13;;;;;;;12.23;7.80;;;;;;;-140.79;100.00;63287.88;5007812;28;20033;-63
2021/11/13 06:35:39;;;;;;;11.43;7.95;;;;;;;-140.79;100.00;63287.88;5007725;28;20562;-62
2021/11/13 06:38:04;;;;;;;10.90;7.30;;;;;;;-140.79;100.00;63287.88;5022606;28;20037;-63
2021/11/13 06:40:30;;;;;;;10.73;8.13;;;;;;;-140.79;100.00;63287.88;5007079;28;20026;-62
2021/11/13 06:42:55;;;;;;;11.35;7.80;;;;;;;-140.79;100.00;63287.88;5007481;28;20026;-63
2021/11/13 06:45:21;;;;;;;9.68;7.38;;;;;;;-140.79;100.00;63287.88;5004416;28;20022;-62
2021/11/13 06:47:46;;;;;;;11.18;7.50;;;;;;;-140.79;100.00;63287.88;5007334;28;20029;-62
2021/11/13 06:50:12;;;;;;;10.27;7.43;;;;;;;-140.79;100.00;63287.88;5022471;28;20033;-63
2021/11/13 06:52:38;;;;;;;10.05;7.75;;;;;;;-140.79;100.00;63287.88;5006395;28;20627;-63
2021/11/13 06:55:04;;;;;;;11.15;7.57;;;;;;;-140.79;100.00;63287.88;5006427;28;20026;-63
2021/11/13 06:57:30;;;;;;;15.45;11.48;;;;;;;-140.79;100.00;63287.88;5000978;28;20041;-62
2021/11/13 06:59:55;;;;;;;16.77;11.15;;;;;;;-140.79;100.00;63287.88;5006408;28;20018;-63
2021/11/13 07:02:21;;;;;;;18.10;12.00;;;;;;;-140.79;100.00;63287.88;5009495;28;20053;-62
2021/11/13 07:04:46;;;;;;;17.95;12.50;;;;;;;-140.79;100.00;63287.88;5026184;28;20026;-62
2021/11/13 07:07:12;;;;;;;16.63;11.82;;;;;;;-140.79;100.00;63287.88;5008714;28;20529;-62
2021/11/13 07:09:37;;;;;;;17.45;11.98;;;;;;;-140.79;100.00;63287.88;5026726;28;20017;-62
2021/11/13 07:12:04;;;;;;;15.23;11.25;;;;;;;-140.79;100.00;63287.88;5008973;28;20040;-63
2021/11/13 07:14:30;;;;;;;16.10;10.98;;;;;;;-140.79;100.00;63287.88;5026775;28;20033;-63
2021/11/13 07:16:55;;;;;;;15.40;10.82;;;;;;;-140.79;100.00;63287.88;5026589;28;20048;-61
2021/11/13 07:19:20;;;;;;;18.60;10.68;;;;;;;-140.79;100.00;63287.88;5008761;28;20032;-62
2021/11/13 07:21:46;;;;;;;15.73;10.93;;;;;;;-140.79;100.00;63287.88;5008883;28;20029;-62
2021/11/13 07:24:11;;;;;;;16.92;10.77;;;;;;;-140.79;100.00;63287.88;5026401;28;20036;-61
2021/11/13 07:26:37;;;;;;;16.40;10.90;;;;;;;-140.79;100.00;63287.88;5026487;28;20032;-61
2021/11/13 07:29:07;;;;;;;16.52;10.30;;;;;;;-140.79;100.00;63287.88;5026527;28;20041;-62
2021/11/13 07:31:32;;;;;;;14.52;10.60;;;;;;;-140.79;100.00;63287.88;5026515;28;20052;-66
2021/11/13 07:33:58;;;;;;;13.98;10.32;;;;;;;-140.79;100.00;63287.88;5021618;28;20034;-64
2021/11/13 07:36:23;;;;;;;16.35;10.85;;;;;;;-140.79;100.00;63287.88;5026442;28;20493;-63
2021/11/13 07:38:50;;;;;;;14.32;10.13;;;;;;;-140.79;100.00;63287.88;5025355;28;20041;-63
2021/11/13 07:41:17;;;;;;;16.20;10.52;;;;;;;-140.79;100.00;63287.88;4991705;28;20025;-64
2021/11/13 07:43:42;;;;;;;15.98;10.32;;;;;;;-140.79;100.00;63287.88;5025467;28;20025;-62
2021/11/13 07:46:08;;;;;;;14.85;9.40;;;;;;;-140.79;100.00;63287.88;5007438;28;20478;-62
2021/11/13 07:48:33;;;;;;;14.73;10.13;;;;;;;-140.79;100.00;63287.88;5025373;28;20036;-63
2021/11/13 07:50:59;;;;;;;16.38;11.10;;;;;;;-140.79;100.00;63287.88;5024521;28;20032;-62
2021/11/13 07:53:24;;;;;;;14.43;9.98;;;;;;;-140.79;100.00;63287.88;5025687;28;20029;-63
2021/11/13 07:55:50;;;;;;;16.40;10.70;;;;;;;-140.79;100.00;63287.88;5024775;28;20032;-62
2021/11/13 07:58:16;;;;;;;13.13;10.43;;;;;;;-140.79;100.00;63287.88;5024446;28;20052;-62
2021/11/13 08:00:42;;;;;;;13.13;9.85;;;;;;;-140.79;100.00;63287.88;5022243;28;20025;-62
2021/11/13 08:03:08;;;;;;;14.52;10.27;;;;;;;-140.79;100.00;63287.88;5024781;28;20124;-62
2021/11/13 08:05:33;;;;;;;15.52;10.15;;;;;;;-140.79;100.00;63287.88;5024950;28;20030;-62
2021/11/13 08:07:59;;;;;;;15.07;10.20;;;;;;;-140.79;100.00;63287.88;5025287;28;20144;-62
2021/11/13 08:10:24;;;;;;;14.35;10.15;;;;;;;-140.79;100.00;63287.88;5024793;28;20033;-63
2021/11/13 08:12:51;;;;;;;13.63;9.70;;;;;;;-140.79;100.00;63287.88;5025698;28;20052;-62
2021/11/13 08:15:17;;;;;;;14.07;10.15;;;;;;;-140.79;100.00;63287.88;5023757;28;20529;-62
2021/11/13 08:17:43;;;;;;;14.32;9.90;;;;;;;-140.79;100.00;63287.88;5025239;28;20072;-62
2021/11/13 08:20:09;;;;;;;14.25;10.45;;;;;;;-140.79;100.00;63287.88;5023255;28;20526;-61
2021/11/13 08:22:35;;;;;;;14.45;10.07;;;;;;;-140.79;100.00;63287.88;5025114;28;20155;-63
2021/11/13 08:25:05;;;;;;;14.10;10.38;;;;;;;-140.79;100.00;63287.88;5024275;28;20029;-62
2021/11/13 08:27:30;;;;;;;14.10;9.88;;;;;;;-140.79;100.00;63287.88;5022532;28;20033;-62
2021/11/13 08:29:56;;;;;;;14.75;10.20;;;;;;;-140.79;100.00;63287.88;5024761;28;20143;-66
2021/11/13 08:32:21;;;;;;;13.65;9.30;;;;;;;-140.79;100.00;63287.88;5004616;28;20566;-62
2021/11/13 08:34:47;;;;;;;14.13;9.45;;;;;;;-140.79;100.00;63287.88;5014529;28;20017;-62
2021/11/13 08:37:12;;;;;;;13.32;9.60;;;;;;;-140.79;100.00;63287.88;5024205;28;20584;-62
2021/11/13 08:39:38;;;;;;;16.65;10.25;;;;;;;-140.79;100.00;63287.88;5023007;28;20860;-62
2021/11/13 08:42:11;;;;;;;14.07;9.82;;;;;;;-140.79;100.00;63287.88;5024400;28;20029;-62
2021/11/13 08:44:38;;;;;;;15.75;9.30;;;;;;;-140.79;100.00;63287.88;5024900;28;20049;-61
2021/11/13 08:47:04;;;;;;;13.13;9.55;;;;;;;-140.79;100.00;63287.88;5024885;28;20037;-62
2021/11/13 08:49:30;;;;;;;13.55;9.35;;;;;;;-140.79;100.00;63287.88;5024799;28;20924;-62
2021/11/13 08:51:56;;;;;;;15.05;9.98;;;;;;;-140.79;100.00;63287.88;5024939;28;20534;-62
2021/11/13 08:54:21;;;;;;;15.05;9.63;;;;;;;-140.79;100.00;63287.88;5025109;28;20048;-61
2021/11/13 08:56:47;;;;;;;11.88;9.18;;;;;;;-140.79;100.00;63287.88;5024437;28;20029;-63
2021/11/13 08:59:12;;;;;;;13.27;10.00;;;;;;;-140.79;100.00;63287.88;5004413;28;20030;-61
2021/11/13 09:01:39;;;;;;;12.75;8.95;;;;;;;-140.79;100.00;63287.88;5024111;28;20218;-62
2021/11/13 09:04:05;;;;;;;13.18;9.23;;;;;;;-140.79;100.00;63287.88;5023859;28;20518;-62
2021/11/13 09:06:30;;;;;;;14.73;9.63;;;;;;;-140.79;100.00;63287.88;5024021;28;20044;-62
2021/11/13 09:08:58;;;;;;;13.18;9.40;;;;;;;-140.79;100.00;63287.88;5024054;28;20494;-62
2021/11/13 09:11:25;;;;;;;12.50;9.75;;;;;;;-140.79;100.00;63287.88;5006577;28;20594;-62
2021/11/13 09:13:50;;;;;;;12.80;9.70;;;;;;;-140.79;100.00;63287.88;5024333;28;20055;-62
2021/11/13 09:16:16;;;;;;;13.45;8.90;;;;;;;-140.79;100.00;63287.88;5006158;28;20029;-62
2021/11/13 09:18:44;;;;;;;12.63;9.23;;;;;;;-140.79;100.00;63287.88;5023720;28;20041;-62
2021/11/13 09:21:09;;;;;;;12.45;9.02;;;;;;;-140.79;100.00;63287.88;5022695;28;20037;-61
2021/11/13 09:23:35;;;;;;;14.55;9.43;;;;;;;-140.79;100.00;63287.88;5023160;28;20029;-63
2021/11/13 09:26:02;;;;;;;15.00;9.25;;;;;;;-140.79;100.00;63287.88;5005547;28;20561;-62
2021/11/13 09:28:27;;;;;;;12.90;9.20;;;;;;;-140.79;100.00;63287.88;5005922;28;20091;-67
2021/11/13 09:30:53;;;;;;;12.43;9.38;;;;;;;-140.79;100.00;63287.88;5022941;28;20025;-61
2021/11/13 09:33:18;;;;;;;11.70;8.70;;;;;;;-140.79;100.00;63287.88;5007144;28;20112;-62
2021/11/13 09:35:44;;;;;;;14.55;9.18;;;;;;;-140.79;100.00;63287.88;5022945;28;20198;-62
2021/11/13 09:38:09;;;;;;;12.88;9.65;;;;;;;-140.79;100.00;63287.88;5023075;28;20666;-61
2021/11/13 09:40:35;;;;;;;13.40;9.25;;;;;;;-140.79;100.00;63287.88;5023607;28;20021;-62
2021/11/13 09:43:01;;;;;;;18.10;13.40;;;;;;;-140.79;100.00;63287.88;5023523;28;20415;-62
2021/11/13 09:45:27;;;;;;;19.50;12.23;;;;;;;-140.79;100.00;63287.88;5005576;28;20072;-62
2021/11/13 09:47:53;;;;;;;15.30;10.18;;;;;;;-140.79;100.00;63287.88;5023013;28;20026;-62
2021/11/13 09:50:20;;;;;;;15.23;9.13;;;;;;;-140.79;100.00;63287.88;5023532;28;20136;-61
2021/11/13 09:52:46;;;;;;;12.93;9.30;;;;;;;-140.79;100.00;63287.88;5005668;28;20340;-61
2021/11/13 09:55:12;;;;;;;13.70;9.90;;;;;;;-140.79;100.00;63287.88;5020494;28;20530;-62
2021/11/13 09:57:38;;;;;;;12.85;9.32;;;;;;;-140.79;100.00;63287.88;5006485;28;20589;-62
2021/11/13 10:00:19;;;;;;;13.00;9.35;;;;;;;-140.79;100.00;63287.88;5021423;28;20009;-63
2021/11/13 10:02:44;;;;;;;12.52;8.52;;;;;;;-140.79;100.00;63287.88;5002405;28;20108;-63
2021/11/13 10:05:10;;;;;;;11.88;8.57;;;;;;;-140.79;100.00;63287.88;5003160;28;20485;-62
2021/11/13 10:07:36;;;;;;;12.45;9.30;;;;;;;-140.79;100.00;63287.88;4986240;28;20022;-62
2021/11/13 10:10:05;;;;;;;13.88;9.35;;;;;;;-140.79;100.00;63287.88;5003487;28;20208;-62
2021/11/13 10:12:42;;;;;;;14.48;8.60;;;;;;;-140.79;100.00;63287.88;5003438;28;20026;-61
2021/11/13 10:15:30;;;;;;;14.02;8.80;;;;;;;-140.79;100.00;63287.88;4987724;28;20037;-62
2021/11/13 10:18:08;;;;;;;12.48;9.10;;;;;;;-140.79;100.00;63287.88;5007272;28;20515;-62
2021/11/13 10:20:34;;;;;;;14.13;8.98;;;;;;;-140.79;100.00;63287.88;5007504;28;20026;-62
2021/11/13 10:23:00;;;;;;;13.40;9.38;;;;;;;-140.79;100.00;63287.88;5007475;28;20522;-62
2021/11/13 10:25:25;;;;;;;12.77;9.02;;;;;;;-140.79;100.00;63287.88;5007190;28;20040;-63
2021/11/13 10:28:14;;;;;;;13.65;9.30;;;;;;;-140.79;100.00;63287.88;5007698;28;20033;-61
2021/11/13 10:30:40;;;;;;;13.43;9.00;;;;;;;-140.79;100.00;63287.88;4997418;28;20516;-62
2021/11/13 10:33:05;;;;;;;12.90;8.80;;;;;;;-140.79;100.00;63287.88;5006671;28;20272;-62
2021/11/13 10:35:49;;;;;;;11.38;8.55;;;;;;;-140.79;100.00;63287.88;4998977;28;20026;-62
2021/11/13 10:38:19;;;;;;;13.63;9.05;;;;;;;-140.79;100.00;63287.88;5006909;28;20095;-61
2021/11/13 10:41:06;;;;;;;13.07;8.95;;;;;;;-140.79;100.00;63287.88;4989966;28;20030;-61
2021/11/13 10:43:37;;;;;;;13.23;9.48;;;;;;;-140.79;100.00;63287.88;5007410;28;20125;-61
2021/11/13 10:46:11;;;;;;;13.38;8.40;;;;;;;-140.79;100.00;63287.88;5007664;28;20036;-61
2021/11/13 10:48:38;;;;;;;13.02;8.45;;;;;;;-140.79;100.00;63287.88;5006080;28;20021;-61
2021/11/13 10:51:09;;;;;;;14.27;8.82;;;;;;;-140.79;100.00;63287.88;5007388;28;20713;-62
2021/11/13 10:53:35;;;;;;;12.15;8.13;;;;;;;-140.79;100.00;63287.88;4999517;28;20126;-61
2021/11/13 10:56:07;;;;;;;15.93;8.30;;;;;;;-140.79;100.00;63287.88;5007338;28;20038;-61
2021/11/13 10:58:52;;;;;;;12.93;9.13;;;;;;;-140.79;100.00;63287.88;4990561;28;20037;-61